Time;durP1;ratioP1;P1;durP2;ratioP2;P2;SDS_P1;SDS_P2;PMS_P1;PMS_P2;Temp;Humidity;BMP_temperature;BMP_pressure;BME280_temperature;BME280_humidity;BME280_pressure;Samples;Min_cycle;Max_cycle;Signal;HPM_P1;HPM_P2
2023/08/29 00:01:00;;;;;;;;;;;;;;;22.13;28.54;97274.81;5059530;28;1124;-79
2023/08/29 00:03:27;;;;;;;;;;;;;;;22.02;28.91;97274.41;5075997;28;881;-79
2023/08/29 00:06:03;;;;;;;;;;;;;;;22.29;28.26;97280.22;5075773;28;1974;-79
2023/08/29 00:08:28;;;;;;;;;;;;;;;22.13;28.41;97274.81;5059319;28;1108;-79
2023/08/29 00:10:55;;;;;;;;;;;;;;;22.39;28.28;97271.78;5058930;28;926;-79
2023/08/29 00:13:20;;;;;;;;;;;;;;;22.30;28.20;97267.63;5075531;28;826;-79
2023/08/29 00:15:46;;;;;;;;;;;;;;;22.22;28.30;97272.00;5059482;28;1230;-80
2023/08/29 00:18:11;;;;;;;;;;;;;;;21.94;28.60;97273.91;5076613;28;696;-79
2023/08/29 00:20:37;;;;;;;;;;;;;;;22.44;28.12;97271.94;5077004;28;948;-79
2023/08/29 00:23:02;;;;;;;;;;;;;;;22.19;28.39;97267.28;5059060;28;1714;-79
2023/08/29 00:25:28;;;;;;;;;;;;;;;22.47;28.13;97267.38;5042910;28;1910;-79
2023/08/29 00:27:53;;;;;;;;;;;;;;;22.15;28.16;97265.84;5058655;28;882;-79
2023/08/29 00:30:19;;;;;;;;;;;;;;;21.87;28.82;97273.41;5059059;28;1300;-79
2023/08/29 00:32:44;;;;;;;;;;;;;;;22.00;28.82;97266.38;5075943;28;721;-79
2023/08/29 00:35:10;;;;;;;;;;;;;;;22.16;28.42;97264.59;5058850;28;1123;-79
2023/08/29 00:37:35;;;;;;;;;;;;;;;22.02;28.79;97251.75;5041351;28;854;-79
2023/08/29 00:40:01;;;;;;;;;;;;;;;22.12;28.34;97259.06;5059003;28;1137;-79
2023/08/29 00:42:27;;;;;;;;;;;;;;;22.30;28.01;97256.31;5059061;28;1491;-79
2023/08/29 00:44:52;;;;;;;;;;;;;;;21.86;28.98;97255.63;5058538;28;1980;-79
2023/08/29 00:47:18;;;;;;;;;;;;;;;22.21;28.09;97258.31;5059061;28;1465;-79
2023/08/29 00:49:44;;;;;;;;;;;;;;;22.32;27.85;97253.78;5075441;28;872;-79
2023/08/29 00:52:09;;;;;;;;;;;;;;;22.22;27.89;97246.50;5075568;28;1207;-79
2023/08/29 00:54:35;;;;;;;;;;;;;;;22.31;28.07;97246.53;5058836;28;1114;-79
2023/08/29 00:57:00;;;;;;;;;;;;;;;22.50;27.71;97246.59;5059715;28;1061;-79
2023/08/29 00:59:26;;;;;;;;;;;;;;;22.25;28.08;97242.75;5058340;28;1181;-79
2023/08/29 01:01:51;;;;;;;;;;;;;;;22.09;28.29;97240.16;5058242;28;961;-79
2023/08/29 01:04:18;;;;;;;;;;;;;;;22.06;28.15;97241.06;5041463;28;1898;-80
2023/08/29 01:06:43;;;;;;;;;;;;;;;21.94;28.55;97239.13;5058098;28;803;-79
2023/08/29 01:09:09;;;;;;;;;;;;;;;22.23;27.81;97233.94;5058316;28;821;-79
2023/08/29 01:11:43;;;;;;;;;;;;;;;22.01;28.50;97233.19;5025183;28;1278;-79
2023/08/29 01:14:26;;;;;;;;;;;;;;;22.23;27.98;97228.28;5041441;28;1257;-79
2023/08/29 01:16:56;;;;;;;;;;;;;;;22.23;27.91;97228.28;5038114;28;899;-79
2023/08/29 01:19:23;;;;;;;;;;;;;;;22.21;28.17;97219.44;5021493;28;1154;-79
2023/08/29 01:21:58;;;;;;;;;;;;;;;22.03;28.44;97230.69;5021356;28;1370;-80
2023/08/29 01:24:26;;;;;;;;;;;;;;;22.20;28.16;97226.34;5021220;28;1914;-79
2023/08/29 01:26:51;;;;;;;;;;;;;;;22.05;28.36;97228.16;5021287;28;791;-80
2023/08/29 01:29:18;;;;;;;;;;;;;;;22.24;27.84;97221.34;5023152;28;1138;-80
2023/08/29 01:31:44;;;;;;;;;;;;;;;22.24;28.07;97221.34;5060885;28;938;-80
2023/08/29 01:34:13;;;;;;;;;;;;;;;22.33;27.65;97210.03;5061480;28;840;-79
2023/08/29 01:36:39;;;;;;;;;;;;;;;22.01;28.30;97213.34;5061149;28;1283;-80
2023/08/29 01:39:05;;;;;;;;;;;;;;;22.31;27.74;97212.53;5061199;28;887;-80
2023/08/29 01:41:31;;;;;;;;;;;;;;;22.28;28.09;97210.66;5061141;28;1180;-79
2023/08/29 01:43:56;;;;;;;;;;;;;;;22.28;27.80;97210.66;5077180;28;995;-79
2023/08/29 01:46:22;;;;;;;;;;;;;;;22.12;28.22;97216.56;5060972;28;1910;-79
2023/08/29 01:48:49;;;;;;;;;;;;;;;22.26;27.96;97224.47;5061853;28;1167;-80
2023/08/29 01:51:15;;;;;;;;;;;;;;;22.30;27.95;97222.28;5078826;28;1394;-80
2023/08/29 01:53:42;;;;;;;;;;;;;;;22.32;27.86;97219.75;5079705;28;773;-80
2023/08/29 01:56:07;;;;;;;;;;;;;;;22.30;27.81;97227.97;5079721;28;758;-79
2023/08/29 01:58:33;;;;;;;;;;;;;;;22.22;27.83;97223.84;5062295;28;869;-80
2023/08/29 02:00:59;;;;;;;;;;;;;;;22.05;28.47;97214.00;5061871;28;1293;-80
2023/08/29 02:03:26;;;;;;;;;;;;;;;22.06;28.24;97213.53;5061764;28;1174;-80
2023/08/29 02:05:51;;;;;;;;;;;;;;;22.17;28.33;97215.16;5078004;28;1975;-80
2023/08/29 02:08:17;;;;;;;;;;;;;;;22.37;27.76;97218.38;5060990;28;1283;-79
2023/08/29 02:10:42;;;;;;;;;;;;;;;22.29;28.08;97215.06;5078077;28;806;-79
2023/08/29 02:13:09;;;;;;;;;;;;;;;21.92;28.78;97221.84;5061652;28;1102;-79
2023/08/29 02:15:35;;;;;;;;;;;;;;;22.21;28.36;97225.09;5061526;28;1106;-80
2023/08/29 02:18:00;;;;;;;;;;;;;;;22.25;28.20;97225.75;5078100;28;1077;-79
2023/08/29 02:20:26;;;;;;;;;;;;;;;22.32;27.88;97231.09;5077972;28;762;-79
2023/08/29 02:22:51;;;;;;;;;;;;;;;22.24;28.25;97223.38;5060227;28;1145;-80
2023/08/29 02:25:17;;;;;;;;;;;;;;;21.92;28.46;97227.50;5059916;28;1961;-79
2023/08/29 02:27:43;;;;;;;;;;;;;;;22.07;28.34;97225.66;5076735;28;962;-80
2023/08/29 02:30:10;;;;;;;;;;;;;;;22.26;28.17;97227.31;5043486;28;915;-80
2023/08/29 02:32:37;;;;;;;;;;;;;;;22.14;28.34;97231.06;5060061;28;1116;-79
2023/08/29 02:35:03;;;;;;;;;;;;;;;22.17;28.14;97241.44;5043806;28;740;-80
2023/08/29 02:37:29;;;;;;;;;;;;;;;22.14;28.34;97239.56;5060368;28;1487;-80
2023/08/29 02:39:56;;;;;;;;;;;;;;;22.08;28.55;97232.91;5060315;28;928;-79
2023/08/29 02:42:22;;;;;;;;;;;;;;;22.27;28.17;97237.38;5076663;28;886;-80
2023/08/29 02:44:47;;;;;;;;;;;;;;;22.28;28.23;97238.19;5043191;28;1985;-80
2023/08/29 02:47:13;;;;;;;;;;;;;;;22.26;28.19;97226.53;5059999;28;899;-80
2023/08/29 02:49:38;;;;;;;;;;;;;;;22.26;27.88;97232.97;5059710;28;965;-79
2023/08/29 02:52:05;;;;;;;;;;;;;;;22.15;28.10;97221.31;5059359;28;1030;-80
2023/08/29 02:54:31;;;;;;;;;;;;;;;22.24;28.23;97223.38;5077056;28;822;-80
2023/08/29 02:56:56;;;;;;;;;;;;;;;22.04;28.41;97220.94;5078237;28;773;-80
2023/08/29 02:59:22;;;;;;;;;;;;;;;22.29;28.18;97220.72;5060653;28;1266;-80
2023/08/29 03:01:47;;;;;;;;;;;;;;;22.20;28.19;97225.56;5077327;28;1189;-79
2023/08/29 03:04:13;;;;;;;;;;;;;;;21.90;28.60;97216.63;5077220;28;1910;-80
2023/08/29 03:06:39;;;;;;;;;;;;;;;22.14;28.31;97225.41;5060782;28;1300;-80
2023/08/29 03:09:07;;;;;;;;;;;;;;;22.09;28.53;97218.28;5078351;28;956;-80
2023/08/29 03:11:33;;;;;;;;;;;;;;;22.20;28.17;97212.19;5061336;28;1178;-81
2023/08/29 03:13:59;;;;;;;;;;;;;;;21.97;28.63;97212.72;5044618;28;1287;-81
2023/08/29 03:16:24;;;;;;;;;;;;;;;22.25;28.22;97207.94;5061174;28;925;-81
2023/08/29 03:18:50;;;;;;;;;;;;;;;22.24;28.14;97212.84;5044466;28;1158;-81
2023/08/29 03:21:16;;;;;;;;;;;;;;;22.35;27.98;97218.84;5061606;28;1162;-81
2023/08/29 03:23:43;;;;;;;;;;;;;;;22.30;28.01;97216.63;5016052;28;1264;-81
2023/08/29 03:26:08;;;;;;;;;;;;;;;22.04;28.67;97215.25;5032761;28;1969;-81
2023/08/29 03:28:34;;;;;;;;;;;;;;;21.97;28.54;97218.41;4999427;28;924;-81
2023/08/29 03:31:20;;;;;;;;;;;;;;;22.00;28.40;97217.44;5017105;28;818;-81
2023/08/29 03:33:46;;;;;;;;;;;;;;;22.07;28.57;97214.31;4983327;28;1249;-82
2023/08/29 03:36:12;;;;;;;;;;;;;;;22.28;28.11;97213.47;5016688;28;1514;-81
2023/08/29 03:38:38;;;;;;;;;;;;;;;22.12;28.11;97216.56;5055420;28;1813;-81
2023/08/29 03:41:03;;;;;;;;;;;;;;;22.04;28.35;97220.94;5040019;28;940;-80
2023/08/29 03:43:30;;;;;;;;;;;;;;;22.16;28.44;97214.38;5038714;28;988;-81
2023/08/29 03:46:05;;;;;;;;;;;;;;;22.43;27.88;97221.38;5023249;28;1910;-81
2023/08/29 03:48:30;;;;;;;;;;;;;;;22.47;27.71;97219.16;5015559;28;815;-81
2023/08/29 03:50:58;;;;;;;;;;;;;;;22.20;28.05;97217.84;4999643;28;849;-81
2023/08/29 03:53:24;;;;;;;;;;;;;;;22.25;28.03;97216.47;4979555;28;1846;-80
2023/08/29 03:55:49;;;;;;;;;;;;;;;22.08;28.53;97211.03;5056635;28;1550;-80
2023/08/29 03:58:15;;;;;;;;;;;;;;;22.29;28.02;97212.22;5058693;28;1238;-79
2023/08/29 04:00:41;;;;;;;;;;;;;;;22.30;28.00;97216.63;5058312;28;936;-80
2023/08/29 04:03:07;;;;;;;;;;;;;;;22.35;28.17;97212.38;5038553;28;1353;-79
2023/08/29 04:05:35;;;;;;;;;;;;;;;22.26;28.21;97210.31;5025058;28;1933;-79
2023/08/29 04:08:01;;;;;;;;;;;;;;;22.21;28.38;97213.75;5037993;28;1172;-80
2023/08/29 04:10:27;;;;;;;;;;;;;;;22.11;28.39;97217.81;4987771;28;1284;-79
2023/08/29 04:12:52;;;;;;;;;;;;;;;22.20;28.55;97211.41;5015103;28;948;-80
2023/08/29 04:15:20;;;;;;;;;;;;;;;22.24;28.17;97212.06;4996297;28;1746;-79
2023/08/29 04:17:46;;;;;;;;;;;;;;;22.35;28.13;97213.16;5014807;28;1445;-79
2023/08/29 04:20:12;;;;;;;;;;;;;;;22.24;28.55;97218.50;5063217;28;1159;-80
2023/08/29 04:22:38;;;;;;;;;;;;;;;22.10;28.48;97213.38;5038309;28;1331;-80
2023/08/29 04:25:05;;;;;;;;;;;;;;;22.22;28.67;97208.88;5038247;28;1964;-80
2023/08/29 04:27:30;;;;;;;;;;;;;;;22.06;28.61;97212.75;5053130;28;1257;-79
2023/08/29 04:29:56;;;;;;;;;;;;;;;22.21;28.51;97218.63;5058121;28;1037;-79
2023/08/29 04:32:22;;;;;;;;;;;;;;;22.26;28.64;97215.97;5057453;28;1133;-79
2023/08/29 04:34:48;;;;;;;;;;;;;;;22.14;28.92;97218.94;5057995;28;1142;-79
2023/08/29 04:37:13;;;;;;;;;;;;;;;22.26;28.41;97221.66;5060869;28;1692;-79
2023/08/29 04:39:39;;;;;;;;;;;;;;;22.20;28.63;97212.19;5038617;28;1162;-79
2023/08/29 04:42:04;;;;;;;;;;;;;;;22.33;28.66;97209.25;5089139;28;798;-80
2023/08/29 04:44:30;;;;;;;;;;;;;;;22.02;29.04;97201.56;5055877;28;1905;-79
2023/08/29 04:46:56;;;;;;;;;;;;;;;22.21;28.62;97208.09;5066888;28;1521;-80
2023/08/29 04:49:21;;;;;;;;;;;;;;;22.08;28.84;97210.25;5075751;28;1252;-80
2023/08/29 04:51:47;;;;;;;;;;;;;;;22.04;29.24;97203.94;5075908;28;1231;-79
2023/08/29 04:54:13;;;;;;;;;;;;;;;22.12;29.20;97210.91;5067343;28;1486;-80
2023/08/29 04:56:38;;;;;;;;;;;;;;;22.14;29.14;97216.91;5092091;28;1682;-79
2023/08/29 04:59:04;;;;;;;;;;;;;;;22.24;28.76;97212.84;5110615;28;1560;-80
2023/08/29 05:01:29;;;;;;;;;;;;;;;22.41;28.77;97221.06;5096328;28;987;-79
2023/08/29 05:03:55;;;;;;;;;;;;;;;22.29;28.63;97215.06;5079371;28;1341;-80
2023/08/29 05:06:20;;;;;;;;;;;;;;;22.26;29.07;97210.31;5041022;28;1979;-79
2023/08/29 05:08:46;;;;;;;;;;;;;;;22.35;28.80;97206.72;5057750;28;1261;-80
2023/08/29 05:11:12;;;;;;;;;;;;;;;22.38;28.90;97213.47;5057243;28;1423;-79
2023/08/29 05:13:38;;;;;;;;;;;;;;;21.92;29.50;97205.63;5063936;28;1546;-80
2023/08/29 05:16:05;;;;;;;;;;;;;;;22.29;29.00;97212.22;5111351;28;963;-80
2023/08/29 05:18:31;;;;;;;;;;;;;;;22.25;29.22;97213.63;5093601;28;1531;-79
2023/08/29 05:20:58;;;;;;;;;;;;;;;22.31;28.84;97217.41;5095029;28;1131;-80
2023/08/29 05:23:23;;;;;;;;;;;;;;;22.35;29.05;97213.16;5077411;28;1200;-79
2023/08/29 05:25:49;;;;;;;;;;;;;;;22.26;29.21;97221.66;5094427;28;1878;-80
2023/08/29 05:28:15;;;;;;;;;;;;;;;22.43;28.97;97219.31;5054585;28;1309;-80
2023/08/29 05:30:40;;;;;;;;;;;;;;;22.47;28.89;97219.16;5072108;28;1284;-79
2023/08/29 05:33:06;;;;;;;;;;;;;;;22.48;28.85;97221.53;5055347;28;844;-80
2023/08/29 05:35:31;;;;;;;;;;;;;;;22.42;29.10;97217.75;5055194;28;1097;-80
2023/08/29 05:37:57;;;;;;;;;;;;;;;22.00;29.61;97214.63;5102449;28;1358;-79
2023/08/29 05:40:22;;;;;;;;;;;;;;;22.22;29.44;97225.88;5075395;28;1159;-80
2023/08/29 05:42:47;;;;;;;;;;;;;;;22.48;29.10;97220.75;5109093;28;935;-80
2023/08/29 05:45:14;;;;;;;;;;;;;;;22.60;28.80;97217.00;5078558;28;1921;-80
2023/08/29 05:47:39;;;;;;;;;;;;;;;22.22;29.64;97215.34;5084001;28;1271;-80
2023/08/29 05:50:05;;;;;;;;;;;;;;;22.36;29.33;97219.63;5058233;28;857;-80
2023/08/29 05:52:31;;;;;;;;;;;;;;;22.71;28.74;97219.38;5074145;28;865;-80
2023/08/29 05:54:57;;;;;;;;;;;;;;;22.39;29.13;97217.91;5058400;28;1064;-79
2023/08/29 05:57:23;;;;;;;;;;;;;;;22.41;28.96;97204.06;5061253;28;1308;-79
2023/08/29 05:59:48;;;;;;;;;;;;;;;22.12;29.76;97216.56;5082701;28;1413;-80
2023/08/29 06:02:14;;;;;;;;;;;;;;;22.49;29.24;97211.00;5074982;28;945;-80
2023/08/29 06:04:39;;;;;;;;;;;;;;;22.25;29.47;97220.06;5059465;28;1973;-79
2023/08/29 06:07:05;;;;;;;;;;;;;;;22.39;29.45;97213.03;5079520;28;1485;-79
2023/08/29 06:09:32;;;;;;;;;;;;;;;22.60;29.18;97222.66;5095256;28;1153;-79
2023/08/29 06:11:59;;;;;;;;;;;;;;;22.65;29.08;97224.88;5111431;28;831;-80
2023/08/29 06:14:24;;;;;;;;;;;;;;;22.33;29.41;97215.69;5078922;28;868;-79
2023/08/29 06:16:50;;;;;;;;;;;;;;;22.14;29.91;97225.41;5073977;28;1410;-80
2023/08/29 06:19:16;;;;;;;;;;;;;;;22.32;29.59;97222.59;5059023;28;1570;-79
2023/08/29 06:21:42;;;;;;;;;;;;;;;22.46;29.35;97217.59;5096597;28;1040;-80
2023/08/29 06:24:07;;;;;;;;;;;;;;;22.45;29.29;97216.03;5080412;28;1055;-80
2023/08/29 06:26:33;;;;;;;;;;;;;;;22.44;29.53;97220.91;5063483;28;1902;-80
2023/08/29 06:28:58;;;;;;;;;;;;;;;22.74;29.00;97222.06;5079704;28;1465;-80
2023/08/29 06:31:24;;;;;;;;;;;;;;;22.44;29.58;97232.25;5086689;28;1464;-80
2023/08/29 06:33:49;;;;;;;;;;;;;;;22.35;29.45;97230.19;5076410;28;925;-80
2023/08/29 06:36:15;;;;;;;;;;;;;;;22.41;29.39;97232.41;5059618;28;1005;-80
2023/08/29 06:38:42;;;;;;;;;;;;;;;22.66;29.02;97232.13;5076409;28;908;-79
2023/08/29 06:41:08;;;;;;;;;;;;;;;22.57;29.19;97230.06;5066706;28;1402;-80
2023/08/29 06:43:33;;;;;;;;;;;;;;;22.51;29.54;97226.28;5060005;28;916;-80
2023/08/29 06:45:59;;;;;;;;;;;;;;;22.35;29.60;97233.00;5059767;28;1909;-80
2023/08/29 06:48:24;;;;;;;;;;;;;;;22.44;29.50;97220.13;5062183;28;1713;-80
2023/08/29 06:50:50;;;;;;;;;;;;;;;22.53;29.21;97225.78;5060489;28;1373;-80
2023/08/29 06:53:16;;;;;;;;;;;;;;;22.53;29.45;97228.63;5014240;28;1483;-80
2023/08/29 06:55:41;;;;;;;;;;;;;;;22.78;29.13;97227.56;5017358;28;950;-80
2023/08/29 06:58:07;;;;;;;;;;;;;;;22.62;29.29;97225.81;4996091;28;1460;-79
2023/08/29 07:00:32;;;;;;;;;;;;;;;22.73;29.32;97231.81;5009093;28;1440;-79
2023/08/29 07:02:58;;;;;;;;;;;;;;;22.32;29.83;97219.75;4980167;28;927;-79
2023/08/29 07:05:24;;;;;;;;;;;;;;;22.66;29.47;97226.44;5016403;28;1983;-72
2023/08/29 07:07:49;;;;;;;;;;;;;;;23.12;30.56;97229.34;5055483;28;894;-80
2023/08/29 07:10:15;;;;;;;;;;;;;;;22.47;31.12;97231.28;5050880;28;1421;-79
2023/08/29 07:12:42;;;;;;;;;;;;;;;22.18;31.49;97231.72;5019452;28;1005;-80
2023/08/29 07:15:08;;;;;;;;;;;;;;;22.02;31.37;97229.09;5035997;28;899;-79
2023/08/29 07:17:33;;;;;;;;;;;;;;;21.98;31.23;97217.91;5019232;28;1225;-79
2023/08/29 07:19:59;;;;;;;;;;;;;;;21.77;31.74;97225.22;5039591;28;1450;-79
2023/08/29 07:22:24;;;;;;;;;;;;;;;21.76;31.51;97220.81;5035699;28;1140;-80
2023/08/29 07:24:50;;;;;;;;;;;;;;;21.58;31.64;97234.88;5035102;28;1960;-79
2023/08/29 07:27:16;;;;;;;;;;;;;;;21.69;31.59;97218.25;5060147;28;1762;-79
2023/08/29 07:29:42;;;;;;;;;;;;;;;22.07;31.24;97219.97;5041936;28;1225;-79
2023/08/29 07:32:08;;;;;;;;;;;;;;;22.25;30.84;97225.75;5063578;28;1415;-80
2023/08/29 07:34:34;;;;;;;;;;;;;;;22.41;30.51;97216.16;5070334;28;1005;-80
2023/08/29 07:36:59;;;;;;;;;;;;;;;22.60;30.34;97217.00;5058738;28;927;-80
2023/08/29 07:39:25;;;;;;;;;;;;;;;22.54;30.32;97216.06;5074968;28;992;-79
2023/08/29 07:41:50;;;;;;;;;;;;;;;22.49;30.79;97219.50;5057870;28;758;-80
2023/08/29 07:44:16;;;;;;;;;;;;;;;22.54;30.47;97218.88;5054984;28;1969;-80
2023/08/29 07:46:42;;;;;;;;;;;;;;;22.56;30.53;97222.03;5022482;28;1241;-80
2023/08/29 07:49:13;;;;;;;;;;;;;;;22.31;31.14;97218.19;5065502;28;1432;-80
2023/08/29 07:51:41;;;;;;;;;;;;;;;22.42;30.84;97228.28;5058665;28;1665;-80
2023/08/29 07:54:07;;;;;;;;;;;;;;;22.74;30.26;97215.56;5041665;28;1189;-80
2023/08/29 07:56:33;;;;;;;;;;;;;;;22.88;30.04;97207.25;5074919;28;966;-79
2023/08/29 07:58:58;;;;;;;;;;;;;;;22.68;30.25;97215.41;5057822;28;1730;-79
2023/08/29 08:01:24;;;;;;;;;;;;;;;22.75;30.29;97200.94;5042092;28;962;-79
2023/08/29 08:03:49;;;;;;;;;;;;;;;22.72;30.50;97203.94;5034073;28;1429;-79
2023/08/29 08:06:15;;;;;;;;;;;;;;;22.69;30.51;97211.34;5034410;28;1963;-80
2023/08/29 08:08:40;;;;;;;;;;;;;;;22.64;30.71;97206.28;5051204;28;824;-80
2023/08/29 08:11:06;;;;;;;;;;;;;;;22.44;30.94;97206.75;5018233;28;999;-80
2023/08/29 08:13:32;;;;;;;;;;;;;;;22.80;30.64;97208.81;5055165;28;1487;-79
2023/08/29 08:15:58;;;;;;;;;;;;;;;22.90;30.51;97223.00;5058130;28;889;-80
2023/08/29 08:18:23;;;;;;;;;;;;;;;22.90;30.10;97218.16;5025130;28;1228;-80
2023/08/29 08:20:49;;;;;;;;;;;;;;;22.62;30.76;97220.13;5042258;28;1222;-80
2023/08/29 08:23:15;;;;;;;;;;;;;;;22.29;31.31;97220.72;5054412;28;1138;-79
2023/08/29 08:25:40;;;;;;;;;;;;;;;21.85;31.95;97215.19;5038451;28;2003;-79
2023/08/29 08:28:07;;;;;;;;;;;;;;;21.95;31.55;97213.19;5037916;28;1004;-79
2023/08/29 08:30:34;;;;;;;;;;;;;;;21.90;31.90;97205.28;5037470;28;934;-80
2023/08/29 08:32:59;;;;;;;;;;;;;;;22.03;31.34;97203.16;5054418;28;978;-80
2023/08/29 08:35:25;;;;;;;;;;;;;;;21.80;31.95;97201.63;5037447;28;1311;-79
2023/08/29 08:37:50;;;;;;;;;;;;;;;21.81;31.92;97199.59;5050958;28;855;-80
2023/08/29 08:40:16;;;;;;;;;;;;;;;22.07;31.57;97197.31;5050824;28;990;-80
2023/08/29 08:42:44;;;;;;;;;;;;;;;22.01;31.66;97197.13;5051053;28;1092;-79
2023/08/29 08:45:10;;;;;;;;;;;;;;;22.12;31.70;97193.91;5034056;28;1906;-80
2023/08/29 08:47:35;;;;;;;;;;;;;;;22.40;31.20;97197.59;5034531;28;931;-80
2023/08/29 08:50:02;;;;;;;;;;;;;;;22.39;31.24;97200.91;5053313;28;869;-80
2023/08/29 08:52:28;;;;;;;;;;;;;;;22.49;30.99;97205.34;5090653;28;1399;-79
2023/08/29 08:54:54;;;;;;;;;;;;;;;22.42;30.95;97200.72;5109038;28;734;-79
2023/08/29 08:57:20;;;;;;;;;;;;;;;22.50;31.06;97209.75;5109052;28;900;-80
2023/08/29 08:59:45;;;;;;;;;;;;;;;22.57;30.98;97200.91;5108693;28;829;-80
2023/08/29 09:02:14;;;;;;;;;;;;;;;22.75;30.79;97200.94;5109219;28;828;-79
2023/08/29 09:04:39;;;;;;;;;;;;;;;22.72;30.85;97198.25;5070875;28;1993;-79
2023/08/29 09:07:05;;;;;;;;;;;;;;;22.56;30.95;97200.13;5056541;28;950;-80
2023/08/29 09:09:30;;;;;;;;;;;;;;;22.88;30.47;97204.44;5088714;28;1538;-80
2023/08/29 09:11:56;;;;;;;;;;;;;;;22.64;31.01;97197.78;5054818;28;849;-79
2023/08/29 09:14:22;;;;;;;;;;;;;;;22.68;30.76;97194.78;5103926;28;1504;-79
2023/08/29 09:16:57;;;;;;;;;;;;;;;22.70;30.65;97198.72;5097023;28;898;-79
2023/08/29 09:19:23;;;;;;;;;;;;;;;22.95;30.25;97196.84;5083786;28;1110;-80
2023/08/29 09:21:49;;;;;;;;;;;;;;;22.67;30.66;97199.66;5084422;28;881;-80
2023/08/29 09:24:21;;;;;;;;;;;;;;;22.60;31.16;97205.66;5083506;28;1479;-79
2023/08/29 09:26:46;;;;;;;;;;;;;;;22.56;31.30;97217.13;5084265;28;1165;-79
2023/08/29 09:29:19;;;;;;;;;;;;;;;22.30;31.58;97216.63;5101550;28;1398;-79
2023/08/29 09:31:48;;;;;;;;;;;;;;;22.17;31.73;97221.63;5064021;28;1244;-79
2023/08/29 09:34:26;;;;;;;;;;;;;;;22.20;31.51;97212.19;5076971;28;1697;-80
2023/08/29 09:36:53;;;;;;;;;;;;;;;22.00;31.80;97208.94;5017210;28;926;-79
2023/08/29 09:39:19;;;;;;;;;;;;;;;22.15;31.53;97204.31;5001129;28;1002;-79
2023/08/29 09:41:57;;;;;;;;;;;;;;;21.95;31.52;97196.19;5016373;28;1302;-79
2023/08/29 09:44:22;;;;;;;;;;;;;;;21.84;31.80;97190.16;5003995;28;1983;-79
2023/08/29 09:46:48;;;;;;;;;;;;;;;21.71;32.28;97193.13;5002289;28;1092;-80
2023/08/29 09:49:13;;;;;;;;;;;;;;;21.98;32.01;97194.47;5000807;28;969;-79
2023/08/29 09:51:39;;;;;;;;;;;;;;;22.23;31.54;97188.59;4999313;28;1351;-79
2023/08/29 09:54:05;;;;;;;;;;;;;;;22.19;31.52;97199.28;5000980;28;993;-80
2023/08/29 09:56:30;;;;;;;;;;;;;;;22.59;30.88;97198.41;5001001;28;937;-79
2023/08/29 09:58:56;;;;;;;;;;;;;;;22.62;31.03;97200.28;5000322;28;922;-79
2023/08/29 10:01:21;;;;;;;;;;;;;;;22.69;30.71;97188.66;5000141;28;1569;-79
2023/08/29 10:03:47;;;;;;;;;;;;;;;22.62;31.01;97191.78;5000400;28;972;-80
2023/08/29 10:06:13;;;;;;;;;;;;;;;22.45;30.92;97182.00;5018901;28;1977;-80
2023/08/29 10:08:41;;;;;;;;;;;;;;;22.77;30.71;97187.06;5069881;28;1317;-80
2023/08/29 10:11:07;;;;;;;;;;;;;;;22.71;30.86;97188.97;5048917;28;1398;-79
2023/08/29 10:13:34;;;;;;;;;;;;;;;22.49;31.52;97182.66;5040443;28;915;-80
2023/08/29 10:16:00;;;;;;;;;;;;;;;22.53;31.12;97172.72;5061000;28;1958;-79
2023/08/29 10:18:25;;;;;;;;;;;;;;;22.69;30.80;97173.66;5077421;28;897;-72
2023/08/29 10:20:51;;;;;;;;;;;;;;;23.10;30.43;97169.41;5069911;28;1407;-77
2023/08/29 10:23:17;;;;;;;;;;;;;;;22.78;31.33;97171.63;5067133;28;1622;-81
2023/08/29 10:25:43;;;;;;;;;;;;;;;22.19;32.52;97182.28;5110859;28;1981;-72
2023/08/29 10:28:10;;;;;;;;;;;;;;;22.48;33.50;97172.56;5077876;28;945;-78
2023/08/29 10:30:36;;;;;;;;;;;;;;;22.40;32.99;97180.59;5109899;28;1489;-79
2023/08/29 10:33:02;;;;;;;;;;;;;;;22.36;33.17;97172.22;5110482;28;944;-80
2023/08/29 10:35:30;;;;;;;;;;;;;;;22.51;32.60;97180.13;5111415;28;780;-80
2023/08/29 10:37:56;;;;;;;;;;;;;;;22.25;32.77;97169.06;5094632;28;750;-80
2023/08/29 10:40:21;;;;;;;;;;;;;;;22.03;33.16;97163.50;5092212;28;1650;-80
2023/08/29 10:42:48;;;;;;;;;;;;;;;21.90;33.06;97159.19;5058693;28;819;-80
2023/08/29 10:45:13;;;;;;;;;;;;;;;21.52;33.90;97165.97;5074487;28;1918;-80
2023/08/29 10:47:45;;;;;;;;;;;;;;;21.95;33.42;97167.06;5057327;28;895;-81
2023/08/29 10:50:10;;;;;;;;;;;;;;;22.34;32.61;97177.59;5097612;28;1395;-80
2023/08/29 10:52:37;;;;;;;;;;;;;;;22.44;32.19;97169.09;5078358;28;959;-81
2023/08/29 10:55:03;;;;;;;;;;;;;;;22.21;32.74;97168.41;5051478;28;1225;-80
2023/08/29 10:57:29;;;;;;;;;;;;;;;22.54;31.98;97167.84;5067056;28;1339;-80
2023/08/29 10:59:55;;;;;;;;;;;;;;;22.44;32.04;97174.78;5059980;28;1280;-80
2023/08/29 11:02:25;;;;;;;;;;;;;;;22.38;32.07;97166.09;5060005;28;857;-81
2023/08/29 11:04:52;;;;;;;;;;;;;;;22.58;31.55;97168.47;5060910;28;1883;-81
2023/08/29 11:07:21;;;;;;;;;;;;;;;22.54;31.75;97159.34;5093261;28;1260;-80
2023/08/29 11:09:47;;;;;;;;;;;;;;;22.57;31.83;97161.22;5075669;28;919;-80
2023/08/29 11:12:13;;;;;;;;;;;;;;;22.34;31.90;97163.41;5076272;28;1036;-80
2023/08/29 11:14:48;;;;;;;;;;;;;;;22.74;31.17;97165.34;5065856;28;888;-80
2023/08/29 11:17:14;;;;;;;;;;;;;;;22.67;31.16;97148.63;5016283;28;833;-80
2023/08/29 11:19:41;;;;;;;;;;;;;;;22.68;31.42;97166.41;4983216;28;1361;-80
2023/08/29 11:22:08;;;;;;;;;;;;;;;22.99;30.94;97152.09;5016055;28;895;-80
2023/08/29 11:24:34;;;;;;;;;;;;;;;22.78;31.21;97143.25;4998978;28;1939;-80
2023/08/29 11:27:00;;;;;;;;;;;;;;;22.20;32.01;97161.19;5015665;28;1010;-80
2023/08/29 11:29:33;;;;;;;;;;;;;;;22.02;32.10;97161.91;5015643;28;852;-80
2023/08/29 11:31:59;;;;;;;;;;;;;;;21.89;32.28;97157.63;4998695;28;1329;-80
2023/08/29 11:34:24;;;;;;;;;;;;;;;21.96;31.82;97163.75;5016181;28;1242;-80
2023/08/29 11:36:50;;;;;;;;;;;;;;;21.74;32.52;97169.53;5018200;28;1357;-80
2023/08/29 11:39:19;;;;;;;;;;;;;;;21.58;32.75;97164.91;4995193;28;1469;-80
2023/08/29 11:41:45;;;;;;;;;;;;;;;21.79;32.37;97168.91;5032733;28;967;-80
2023/08/29 11:44:10;;;;;;;;;;;;;;;22.34;31.41;97169.09;5035806;28;844;-80
2023/08/29 11:46:36;;;;;;;;;;;;;;;22.26;31.55;97162.13;5035510;28;1913;-80
2023/08/29 11:49:10;;;;;;;;;;;;;;;22.27;31.72;97155.19;5038684;28;1349;-80
2023/08/29 11:51:36;;;;;;;;;;;;;;;22.70;31.01;97170.38;4998873;28;1167;-80
2023/08/29 11:54:03;;;;;;;;;;;;;;;22.64;30.95;97166.59;5015692;28;900;-81
2023/08/29 11:56:28;;;;;;;;;;;;;;;22.93;30.28;97171.03;4999183;28;978;-80
2023/08/29 11:58:56;;;;;;;;;;;;;;;22.87;30.52;97163.13;5014718;28;1310;-80
2023/08/29 12:01:22;;;;;;;;;;;;;;;22.48;31.22;97170.50;4999668;28;882;-80
2023/08/29 12:03:49;;;;;;;;;;;;;;;22.58;31.09;97162.78;4998818;28;923;-80
2023/08/29 12:06:15;;;;;;;;;;;;;;;22.55;31.36;97173.03;5005043;28;1990;-80
2023/08/29 12:08:43;;;;;;;;;;;;;;;22.53;31.37;97171.94;4982012;28;1296;-80
2023/08/29 12:11:09;;;;;;;;;;;;;;;22.94;30.49;97161.25;4995992;28;1228;-80
2023/08/29 12:13:35;;;;;;;;;;;;;;;22.78;30.84;97165.16;4979132;28;858;-80
2023/08/29 12:16:02;;;;;;;;;;;;;;;22.73;31.17;97162.97;4990168;28;1391;-81
2023/08/29 12:18:28;;;;;;;;;;;;;;;22.85;30.79;97159.19;4956087;29;1333;-80
2023/08/29 12:21:15;;;;;;;;;;;;;;;22.66;30.92;97161.22;5006952;28;1005;-80
2023/08/29 12:23:42;;;;;;;;;;;;;;;22.79;30.83;97150.50;5011568;28;1219;-80
2023/08/29 12:26:08;;;;;;;;;;;;;;;22.34;31.38;97154.91;5011723;28;1984;-80
2023/08/29 12:28:33;;;;;;;;;;;;;;;22.28;31.42;97156.00;5014376;28;1594;-80
2023/08/29 12:30:59;;;;;;;;;;;;;;;22.01;31.85;97148.97;5031763;28;808;-80
2023/08/29 12:33:25;;;;;;;;;;;;;;;21.72;32.33;97143.72;5001591;28;1299;-80
2023/08/29 12:35:50;;;;;;;;;;;;;;;21.83;31.82;97149.72;5019027;28;911;-80
2023/08/29 12:38:16;;;;;;;;;;;;;;;21.67;32.20;97135.84;4997900;28;1378;-80
2023/08/29 12:40:42;;;;;;;;;;;;;;;21.88;32.09;97133.38;4998608;28;814;-81
2023/08/29 12:43:09;;;;;;;;;;;;;;;22.01;32.09;97136.88;5016550;28;899;-80
2023/08/29 12:45:35;;;;;;;;;;;;;;;22.44;30.95;97140.75;4986082;28;1919;-80
2023/08/29 12:48:01;;;;;;;;;;;;;;;22.77;30.49;97141.69;5017517;28;1465;-80
2023/08/29 12:50:27;;;;;;;;;;;;;;;22.48;31.13;97141.38;5054849;28;844;-80
2023/08/29 12:52:53;;;;;;;;;;;;;;;22.35;31.33;97125.31;5058931;28;1322;-80
2023/08/29 12:55:18;;;;;;;;;;;;;;;22.64;30.71;97132.56;5079205;28;875;-80